createdAt,value
2022-08-12T00:01:12.796Z,4.10
2022-08-12T00:03:58.938Z,4.05
2022-08-12T00:06:47.291Z,3.95
2022-08-12T00:09:33.847Z,3.80
2022-08-12T00:12:19.832Z,3.88
2022-08-12T00:15:06.051Z,4.10
2022-08-12T00:17:52.516Z,4.32
2022-08-12T00:20:38.506Z,4.43
2022-08-12T00:23:24.655Z,3.70
2022-08-12T00:26:22.860Z,4.45
2022-08-12T00:29:13.835Z,4.18
2022-08-12T00:32:01.160Z,3.83
2022-08-12T00:34:49.353Z,4.18
2022-08-12T00:37:37.523Z,4.05
2022-08-12T00:40:26.647Z,3.75
2022-08-12T00:42:54.073Z,4.13
2022-08-12T00:45:21.684Z,4.43
2022-08-12T00:47:52.259Z,3.80
2022-08-12T00:50:22.335Z,3.85
2022-08-12T00:52:52.596Z,4.32
2022-08-12T00:55:20.464Z,4.03
2022-08-12T00:57:49.996Z,4.15
2022-08-12T01:00:23.931Z,4.10
2022-08-12T01:02:55.650Z,4.03
2022-08-12T01:05:43.143Z,4.22
2022-08-12T01:08:29.186Z,4.07
2022-08-12T01:11:16.137Z,3.47
2022-08-12T01:13:48.438Z,3.80
2022-08-12T01:16:22.431Z,3.75
2022-08-12T01:18:52.987Z,4.00
2022-08-12T01:21:58.994Z,4.20
2022-08-12T01:24:31.258Z,4.10
2022-08-12T01:27:01.227Z,4.32
2022-08-12T01:29:32.487Z,3.97
2022-08-12T01:34:37.542Z,4.20
2022-08-12T01:37:07.677Z,4.30
2022-08-12T01:40:34.147Z,4.45
2022-08-12T01:42:43.426Z,4.40
2022-08-12T01:45:12.512Z,4.53
2022-08-12T01:47:49.845Z,4.47
2022-08-12T01:50:40.093Z,3.97
2022-08-12T01:53:13.531Z,4.35
2022-08-12T01:55:45.306Z,4.10
2022-08-12T01:58:16.189Z,4.20
2022-08-12T02:00:56.232Z,4.72
2022-08-12T02:03:56.551Z,4.13
2022-08-12T02:06:52.842Z,4.22
2022-08-12T02:10:00.354Z,4.18
2022-08-12T02:13:10.017Z,4.38
2022-08-12T02:15:59.133Z,4.00
2022-08-12T02:18:37.482Z,4.28
2022-08-12T02:21:12.306Z,4.43
2022-08-12T02:23:41.077Z,4.30
2022-08-12T02:26:10.180Z,4.50
2022-08-12T02:28:38.658Z,3.95
2022-08-12T02:31:09.033Z,4.68
2022-08-12T02:33:38.117Z,4.30
2022-08-12T02:36:06.078Z,4.22
2022-08-12T02:38:34.369Z,4.32
2022-08-12T02:41:04.819Z,4.18
2022-08-12T02:43:52.214Z,5.15
2022-08-12T02:46:28.040Z,4.10
2022-08-12T02:49:00.977Z,4.30
2022-08-12T02:51:34.618Z,4.10
2022-08-12T02:54:06.165Z,4.18
2022-08-12T02:56:37.520Z,4.07
2022-08-12T02:59:06.870Z,3.80
2022-08-12T03:01:42.588Z,4.18
2022-08-12T03:04:43.918Z,3.70
2022-08-12T03:07:39.067Z,3.95
2022-08-12T03:10:26.032Z,3.67
2022-08-12T03:13:08.109Z,3.60
2022-08-12T03:15:36.209Z,3.65
2022-08-12T03:18:25.717Z,3.72
2022-08-12T03:20:58.950Z,3.83
2022-08-12T03:23:30.553Z,3.70
2022-08-12T03:26:03.304Z,3.88
2022-08-12T03:28:54.314Z,3.65
2022-08-12T03:31:26.034Z,3.53
2022-08-12T03:34:02.123Z,4.10
2022-08-12T03:36:36.273Z,4.00
2022-08-12T03:39:18.747Z,3.90
2022-08-12T03:42:06.375Z,3.70
2022-08-12T03:45:27.058Z,3.92
2022-08-12T03:48:22.259Z,3.38
2022-08-12T03:51:08.742Z,3.70
2022-08-12T03:56:41.054Z,3.80
2022-08-12T03:59:27.480Z,3.42
2022-08-12T04:01:58.751Z,3.58
2022-08-12T04:04:35.745Z,3.25
2022-08-12T04:07:08.970Z,3.50
2022-08-12T04:09:40.409Z,3.50
2022-08-12T04:12:32.306Z,3.90
2022-08-12T04:15:01.403Z,3.60
2022-08-12T04:17:28.998Z,3.72
2022-08-12T04:19:57.921Z,3.67
2022-08-12T04:22:30.534Z,3.28
2022-08-12T04:25:02.776Z,3.50
2022-08-12T04:27:31.910Z,3.33
2022-08-12T04:30:29.338Z,3.55
2022-08-12T04:32:52.204Z,3.53
2022-08-12T04:35:21.509Z,3.47
2022-08-12T04:37:59.335Z,3.70
2022-08-12T04:40:30.917Z,3.60
2022-08-12T04:43:01.258Z,3.70
2022-08-12T04:45:33.052Z,3.38
2022-08-12T04:48:02.031Z,3.47
2022-08-12T04:50:35.721Z,3.70
2022-08-12T04:53:06.849Z,3.40
2022-08-12T04:55:38.338Z,3.47
2022-08-12T04:58:07.768Z,3.60
2022-08-12T05:00:36.054Z,3.53
2022-08-12T05:03:06.079Z,3.63
2022-08-12T05:05:36.309Z,3.67
2022-08-12T05:08:07.824Z,3.22
2022-08-12T05:10:36.078Z,3.28
2022-08-12T05:13:14.213Z,3.30
2022-08-12T05:16:05.179Z,3.38
2022-08-12T05:18:30.497Z,3.40
2022-08-12T05:20:59.123Z,3.60
2022-08-12T05:23:27.432Z,3.55
2022-08-12T05:25:57.860Z,3.72
2022-08-12T05:28:27.504Z,3.60
2022-08-12T05:30:56.679Z,3.50
2022-08-12T05:33:33.206Z,3.55
2022-08-12T05:36:00.719Z,3.58
2022-08-12T05:38:46.908Z,3.67
2022-08-12T05:41:20.594Z,4.90
2022-08-12T05:43:51.133Z,4.05
2022-08-12T05:46:20.662Z,5.28
2022-08-12T05:48:49.556Z,4.32
2022-08-12T05:51:18.935Z,4.20
2022-08-12T05:53:46.559Z,3.70
2022-08-12T05:56:29.313Z,3.95
2022-08-12T05:58:58.431Z,3.92
2022-08-12T06:02:10.196Z,3.30
2022-08-12T06:06:42.414Z,3.20
2022-08-12T06:09:10.986Z,3.35
2022-08-12T06:11:41.386Z,3.20
2022-08-12T06:14:29.113Z,3.10
2022-08-12T06:16:59.857Z,2.92
2022-08-12T06:20:22.722Z,3.50
2022-08-12T06:22:19.978Z,2.70
2022-08-12T06:24:52.831Z,2.67
2022-08-12T06:27:21.857Z,2.88
2022-08-12T06:30:07.924Z,3.17
2022-08-12T06:32:42.890Z,2.70
2022-08-12T06:35:25.391Z,2.33
2022-08-12T06:37:56.611Z,2.35
2022-08-12T06:40:44.592Z,2.67
2022-08-12T06:43:13.218Z,2.63
2022-08-12T06:45:49.124Z,2.85
2022-08-12T06:48:17.390Z,1.98
2022-08-12T06:50:46.106Z,2.22
2022-08-12T06:53:15.808Z,2.33
2022-08-12T06:55:57.702Z,2.05
2022-08-12T06:58:31.258Z,1.95
2022-08-12T07:00:59.690Z,3.22
2022-08-12T07:03:28.883Z,2.33
2022-08-12T07:06:01.964Z,2.13
2022-08-12T07:08:31.299Z,2.53
2022-08-12T07:11:01.368Z,2.40
2022-08-12T07:14:02.386Z,2.20
2022-08-12T07:16:50.095Z,2.28
2022-08-12T07:19:22.065Z,2.28
2022-08-12T07:22:02.274Z,2.33
2022-08-12T07:24:30.506Z,2.38
2022-08-12T07:26:58.854Z,2.47
2022-08-12T07:30:02.494Z,2.38
2022-08-12T07:32:19.181Z,2.08
2022-08-12T07:34:48.106Z,2.33
2022-08-12T07:37:16.603Z,2.22
2022-08-12T07:39:51.052Z,2.25
2022-08-12T07:42:29.425Z,2.70
2022-08-12T07:44:57.024Z,2.13
2022-08-12T07:47:26.952Z,2.15
2022-08-12T07:50:04.590Z,2.03
2022-08-12T07:52:39.087Z,2.45
2022-08-12T07:55:07.191Z,2.15
2022-08-12T07:57:35.589Z,2.45
2022-08-12T08:00:09.424Z,2.40
2022-08-12T08:02:37.140Z,2.25
2022-08-12T08:05:06.077Z,2.38
2022-08-12T08:07:33.698Z,2.47
2022-08-12T08:10:04.958Z,2.28
2022-08-12T08:12:50.886Z,2.08
2022-08-12T08:15:19.737Z,2.50
2022-08-12T08:18:01.806Z,2.40
2022-08-12T08:20:33.944Z,2.17
2022-08-12T08:23:08.012Z,2.30
2022-08-12T08:25:38.718Z,2.40
2022-08-12T08:28:12.550Z,2.42
2022-08-12T08:30:43.765Z,2.50
2022-08-12T08:33:23.252Z,2.42
2022-08-12T08:36:02.225Z,2.08
2022-08-12T08:38:33.086Z,2.67
2022-08-12T08:42:15.532Z,1.95
2022-08-12T08:44:11.833Z,2.40
2022-08-12T08:46:41.167Z,2.47
2022-08-12T08:49:08.681Z,2.33
2022-08-12T08:51:36.755Z,2.30
2022-08-12T08:54:04.959Z,2.50
2022-08-12T08:56:33.324Z,2.70
2022-08-12T08:59:00.748Z,2.33
2022-08-12T09:01:37.898Z,2.55
2022-08-12T09:05:07.199Z,1.92
2022-08-12T09:06:56.745Z,2.15
2022-08-12T09:09:34.049Z,2.30
2022-08-12T09:12:31.570Z,2.30
2022-08-12T09:15:00.838Z,2.50
2022-08-12T09:17:42.081Z,2.50
2022-08-12T09:23:07.921Z,2.40
2022-08-12T09:25:53.251Z,2.38
2022-08-12T09:28:31.090Z,2.13
2022-08-12T09:32:06.748Z,2.10
2022-08-12T09:34:25.651Z,2.22
2022-08-12T09:36:58.364Z,2.22
2022-08-12T09:40:04.298Z,2.03
2022-08-12T09:42:49.213Z,2.25
2022-08-12T09:46:11.296Z,2.10
2022-08-12T09:48:20.214Z,2.47
2022-08-12T09:50:52.075Z,2.10
2022-08-12T09:53:36.540Z,2.17
2022-08-12T09:56:57.426Z,1.80
2022-08-12T09:59:08.024Z,2.15
2022-08-12T10:02:42.800Z,2.03
2022-08-12T10:04:30.339Z,2.17
2022-08-12T10:06:58.126Z,1.73
2022-08-12T10:09:28.928Z,2.42
2022-08-12T10:12:33.233Z,2.15
2022-08-12T10:15:02.280Z,1.98
2022-08-12T10:17:31.165Z,1.83
2022-08-12T10:19:59.781Z,1.92
2022-08-12T10:22:39.058Z,2.13
2022-08-12T10:26:35.515Z,2.00
2022-08-12T10:28:40.657Z,2.08
2022-08-12T10:31:16.409Z,2.08
2022-08-12T10:34:05.154Z,2.35
2022-08-12T10:36:40.619Z,2.10
2022-08-12T10:40:01.057Z,1.83
2022-08-12T10:42:30.491Z,2.33
2022-08-12T10:45:06.859Z,2.28
2022-08-12T10:48:07.390Z,2.08
2022-08-12T10:50:29.659Z,2.05
2022-08-12T10:53:09.115Z,1.90
2022-08-12T10:55:36.912Z,1.90
2022-08-12T10:58:15.288Z,2.08
2022-08-12T11:01:26.250Z,1.95
2022-08-12T11:04:24.692Z,1.83
2022-08-12T11:07:07.394Z,1.85
2022-08-12T11:09:18.704Z,2.20
2022-08-12T11:12:35.804Z,2.20
2022-08-12T11:14:57.056Z,2.10
2022-08-12T11:17:34.736Z,2.35
2022-08-12T11:20:15.153Z,1.98
2022-08-12T11:22:43.032Z,1.98
2022-08-12T11:25:42.293Z,2.20
2022-08-12T11:28:15.839Z,2.17
2022-08-12T11:30:44.296Z,2.05
2022-08-12T11:33:24.307Z,2.20
2022-08-12T11:36:13.961Z,2.10
2022-08-12T11:38:42.516Z,1.95
2022-08-12T11:41:10.252Z,2.15
2022-08-12T11:43:50.806Z,2.00
2022-08-12T11:46:25.228Z,2.17
2022-08-12T11:48:52.900Z,2.30
2022-08-12T11:51:22.002Z,2.00
2022-08-12T11:53:58.962Z,1.92
2022-08-12T11:56:38.474Z,2.20
2022-08-12T12:02:02.740Z,2.53
2022-08-12T12:04:32.980Z,2.30
2022-08-12T12:07:06.803Z,2.38
2022-08-12T12:09:52.058Z,2.30
2022-08-12T12:12:23.277Z,2.25
2022-08-12T12:14:54.907Z,2.70
2022-08-12T12:17:25.102Z,2.13
2022-08-12T12:19:53.479Z,2.33
2022-08-12T12:22:23.577Z,1.88
2022-08-12T12:24:54.680Z,2.03
2022-08-12T12:27:40.183Z,2.30
2022-08-12T12:30:19.887Z,2.20
2022-08-12T12:32:58.187Z,2.30
2022-08-12T12:36:18.721Z,1.95
2022-08-12T12:38:14.300Z,2.05
2022-08-12T12:40:44.874Z,2.30
2022-08-12T12:43:13.850Z,2.20
2022-08-12T12:45:44.661Z,2.30
2022-08-12T12:48:17.241Z,1.77
2022-08-12T12:50:51.254Z,1.88
2022-08-12T12:54:06.412Z,2.10
2022-08-12T12:56:33.983Z,2.10
2022-08-12T12:59:03.767Z,2.15
2022-08-12T13:01:38.350Z,2.35
2022-08-12T13:04:12.532Z,2.15
2022-08-12T13:06:42.400Z,2.30
2022-08-12T13:09:28.334Z,2.35
2022-08-12T13:12:21.351Z,2.05
2022-08-12T13:15:00.653Z,1.95
2022-08-12T13:18:01.906Z,2.25
2022-08-12T13:20:37.415Z,2.20
2022-08-12T13:23:37.302Z,1.95
2022-08-12T13:26:14.297Z,1.90
2022-08-12T13:28:55.899Z,2.38
2022-08-12T13:31:31.045Z,2.10
2022-08-12T13:34:33.905Z,2.08
2022-08-12T13:36:57.160Z,2.42
2022-08-12T13:39:35.319Z,2.10
2022-08-12T13:42:13.548Z,2.13
2022-08-12T13:44:43.437Z,1.90
2022-08-12T13:47:18.403Z,1.83
2022-08-12T13:49:54.993Z,2.03
2022-08-12T13:52:26.440Z,1.95
2022-08-12T13:54:56.644Z,2.10
2022-08-12T13:57:44.671Z,1.80
2022-08-12T14:00:16.065Z,2.08
2022-08-12T14:02:44.588Z,2.08
2022-08-12T14:05:38.146Z,1.95
2022-08-12T14:08:09.054Z,2.10
2022-08-12T14:10:50.422Z,2.53
2022-08-12T14:14:03.109Z,2.15
2022-08-12T14:16:48.358Z,2.15
2022-08-12T14:19:18.349Z,2.40
2022-08-12T14:21:59.202Z,1.83
2022-08-12T14:24:36.445Z,2.30
2022-08-12T14:27:10.891Z,2.10
2022-08-12T14:30:05.767Z,2.38
2022-08-12T14:32:36.352Z,2.20
2022-08-12T14:35:17.770Z,2.10
2022-08-12T14:37:57.016Z,2.42
2022-08-12T14:40:38.865Z,2.40
2022-08-12T14:43:08.494Z,2.35
2022-08-12T14:45:46.921Z,2.20
2022-08-12T14:48:24.390Z,2.40
2022-08-12T14:52:10.775Z,6.10
2022-08-12T14:55:10.905Z,2.20
2022-08-12T14:56:59.809Z,2.10
2022-08-12T14:59:57.839Z,2.13
2022-08-12T15:02:29.439Z,2.20
2022-08-12T15:04:59.789Z,2.08
2022-08-12T15:07:33.474Z,2.50
2022-08-12T15:10:24.990Z,2.08
2022-08-12T15:13:08.350Z,2.17
2022-08-12T15:15:43.701Z,2.25
2022-08-12T15:18:31.131Z,2.15
2022-08-12T15:21:06.234Z,2.25
2022-08-12T15:23:54.770Z,2.28
2022-08-12T15:26:28.517Z,2.22
2022-08-12T15:28:59.516Z,2.20
2022-08-12T15:32:00.447Z,2.08
2022-08-12T15:34:23.025Z,2.50
2022-08-12T15:37:02.608Z,2.35
2022-08-12T15:39:30.209Z,2.40
2022-08-12T15:42:02.712Z,2.30
2022-08-12T15:44:41.882Z,2.22
2022-08-12T15:47:11.623Z,2.47
2022-08-12T15:49:54.269Z,2.63
2022-08-12T15:52:30.087Z,2.60
2022-08-12T15:55:06.449Z,2.63
2022-08-12T15:57:41.688Z,2.03
2022-08-12T16:00:28.965Z,2.50
2022-08-12T16:03:05.995Z,2.70
2022-08-12T16:06:12.340Z,3.15
2022-08-12T16:08:45.049Z,3.80
2022-08-12T16:11:18.706Z,4.00
2022-08-12T16:13:51.463Z,4.88
2022-08-12T16:19:09.687Z,4.75
2022-08-12T16:21:59.245Z,4.90
2022-08-12T16:24:30.300Z,5.00
2022-08-12T16:26:59.492Z,5.18
2022-08-12T16:30:03.286Z,5.35
2022-08-12T16:32:36.038Z,6.15
2022-08-12T16:35:16.576Z,4.43
2022-08-12T16:38:25.845Z,4.35
2022-08-12T16:40:34.812Z,3.88
2022-08-12T16:43:12.894Z,2.90
2022-08-12T16:46:23.503Z,3.95
2022-08-12T16:48:43.373Z,3.67
2022-08-12T16:51:15.551Z,4.00
2022-08-12T16:53:45.599Z,3.90
2022-08-12T16:56:18.494Z,4.18
2022-08-12T16:58:48.907Z,4.53
2022-08-12T17:04:13.688Z,4.35
2022-08-12T17:06:47.872Z,3.75
2022-08-12T17:09:17.624Z,3.60
2022-08-12T17:11:51.264Z,3.90
2022-08-12T17:14:23.475Z,3.63
2022-08-12T17:16:55.716Z,3.17
2022-08-12T17:20:16.889Z,3.83
2022-08-12T17:22:21.667Z,3.60
2022-08-12T17:24:56.081Z,3.08
2022-08-12T17:27:31.204Z,3.78
2022-08-12T17:30:13.288Z,3.58
2022-08-12T17:32:53.246Z,4.10
2022-08-12T17:35:36.719Z,4.03
2022-08-12T17:38:11.750Z,4.10
2022-08-12T17:40:48.943Z,4.07
2022-08-12T17:43:54.660Z,4.65
2022-08-12T17:46:23.607Z,4.05
2022-08-12T17:48:55.121Z,4.65
2022-08-12T17:51:31.686Z,4.65
2022-08-12T17:54:11.223Z,4.88
2022-08-12T17:56:43.202Z,5.57
2022-08-12T17:59:13.192Z,5.55
2022-08-12T18:01:49.414Z,6.88
2022-08-12T18:04:22.194Z,5.97
2022-08-12T18:06:52.983Z,6.20
2022-08-12T18:09:32.203Z,5.63
2022-08-12T18:12:28.936Z,5.10
2022-08-12T18:15:08.756Z,5.65
2022-08-12T18:17:46.950Z,5.43
2022-08-12T18:20:18.811Z,5.60
2022-08-12T18:22:55.766Z,5.68
2022-08-12T18:26:16.855Z,5.85
2022-08-12T18:28:43.284Z,5.60
2022-08-12T18:31:43.838Z,6.05
2022-08-12T18:34:19.309Z,7.03
2022-08-12T18:36:55.381Z,6.55
2022-08-12T18:39:31.441Z,6.78
2022-08-12T18:44:45.650Z,6.43
2022-08-12T18:47:20.503Z,6.10
2022-08-12T18:49:49.725Z,6.38
2022-08-12T18:52:19.665Z,6.32
2022-08-12T18:54:53.887Z,6.20
2022-08-12T18:58:06.858Z,5.90
2022-08-12T19:00:21.247Z,6.47
2022-08-12T19:02:54.034Z,6.70
2022-08-12T19:05:53.627Z,5.53
2022-08-12T19:08:17.299Z,6.03
2022-08-12T19:10:50.155Z,5.75
2022-08-12T19:13:43.615Z,4.88
2022-08-12T19:16:12.642Z,4.32
2022-08-12T19:18:48.031Z,4.72
2022-08-12T19:21:20.380Z,4.68
2022-08-12T19:24:13.112Z,4.95
2022-08-12T19:26:57.408Z,5.18
2022-08-12T19:29:26.233Z,4.80
2022-08-12T19:32:11.193Z,5.47
2022-08-12T19:38:06.881Z,5.50
2022-08-12T19:40:40.337Z,4.95
2022-08-12T19:43:59.298Z,5.35
2022-08-12T19:46:20.486Z,4.65
2022-08-12T19:49:03.109Z,5.00
2022-08-12T19:51:33.805Z,4.82
2022-08-12T19:54:06.528Z,4.55
2022-08-12T19:56:39.034Z,4.35
2022-08-12T19:59:43.589Z,4.55
2022-08-12T20:02:19.738Z,4.88
2022-08-12T20:06:03.797Z,4.15
2022-08-12T20:07:59.562Z,4.55
2022-08-12T20:10:35.283Z,5.70
2022-08-12T20:13:18.782Z,5.18
2022-08-12T20:15:58.793Z,4.78
2022-08-12T20:18:53.403Z,5.55
2022-08-12T20:21:24.389Z,4.68
2022-08-12T20:24:01.013Z,5.45
2022-08-12T20:26:30.982Z,5.25
2022-08-12T20:29:05.351Z,5.13
2022-08-12T20:31:40.364Z,5.15
2022-08-12T20:34:20.174Z,5.28
2022-08-12T20:36:57.217Z,4.63
2022-08-12T20:39:52.945Z,4.55
2022-08-12T20:45:44.677Z,4.97
2022-08-12T20:48:30.061Z,5.00
2022-08-12T20:51:04.660Z,4.85
2022-08-12T20:53:57.960Z,4.45
2022-08-12T20:56:30.677Z,4.50
2022-08-12T20:59:01.401Z,4.88
2022-08-12T21:01:47.149Z,4.60
2022-08-12T21:04:37.767Z,4.70
2022-08-12T21:07:09.802Z,4.80
2022-08-12T21:09:49.121Z,4.78
2022-08-12T21:12:31.091Z,5.30
2022-08-12T21:15:17.555Z,4.38
2022-08-12T21:18:11.298Z,3.95
2022-08-12T21:20:57.651Z,3.70
2022-08-12T21:26:01.139Z,4.03
2022-08-12T21:28:31.071Z,4.32
2022-08-12T21:32:34.951Z,4.30
2022-08-12T21:34:08.917Z,4.53
2022-08-12T21:36:43.398Z,4.18
2022-08-12T21:39:21.036Z,4.88
2022-08-12T21:41:53.104Z,4.18
2022-08-12T21:44:24.710Z,3.80
2022-08-12T21:47:21.772Z,3.70
2022-08-12T21:50:03.119Z,3.90
2022-08-12T21:52:41.155Z,3.95
2022-08-12T21:55:19.560Z,4.03
2022-08-12T21:57:54.700Z,3.67
2022-08-12T22:00:36.969Z,3.28
2022-08-12T22:04:03.716Z,3.50
2022-08-12T22:06:19.938Z,3.33
2022-08-12T22:09:02.639Z,3.47
2022-08-12T22:11:41.945Z,3.10
2022-08-12T22:14:21.796Z,3.30
2022-08-12T22:16:54.749Z,3.50
2022-08-12T22:19:23.467Z,3.00
2022-08-12T22:21:58.321Z,3.00
2022-08-12T22:24:29.653Z,2.55
2022-08-12T22:27:18.190Z,3.20
2022-08-12T22:30:16.719Z,3.03
2022-08-12T22:32:49.889Z,2.90
2022-08-12T22:35:56.575Z,2.92
2022-08-12T22:38:24.867Z,2.45
2022-08-12T22:40:57.082Z,2.72
2022-08-12T22:44:00.124Z,3.13
2022-08-12T22:46:53.077Z,2.55
2022-08-12T22:49:48.742Z,2.40
2022-08-12T22:52:22.928Z,2.90
2022-08-12T22:55:03.161Z,2.47
2022-08-12T22:57:49.365Z,2.33
2022-08-12T23:00:27.987Z,2.67
2022-08-12T23:03:00.852Z,2.45
2022-08-12T23:05:57.737Z,1.90
2022-08-12T23:08:22.557Z,2.35
2022-08-12T23:10:53.137Z,2.72
2022-08-12T23:13:43.759Z,2.92
2022-08-12T23:16:27.855Z,2.83
2022-08-12T23:19:10.991Z,2.63
2022-08-12T23:22:05.356Z,3.03
2022-08-12T23:24:56.189Z,2.75
2022-08-12T23:27:51.567Z,2.45
2022-08-12T23:30:31.322Z,2.58
2022-08-12T23:33:01.485Z,2.92
2022-08-12T23:35:53.991Z,2.78
2022-08-12T23:38:30.287Z,2.55
2022-08-12T23:41:04.277Z,2.55
2022-08-12T23:43:38.949Z,2.90
2022-08-12T23:46:19.114Z,2.83
2022-08-12T23:48:50.539Z,3.03
2022-08-12T23:51:25.203Z,3.03
2022-08-12T23:53:56.362Z,2.67
2022-08-12T23:56:27.518Z,3.80
2022-08-12T23:58:58.409Z,3.05
